Terminal Aerodrome Forecast
Issued by NWS

Home | Current Version | Previous Version | Text Only | Print | Product List | Glossary On
Versions: 1 2 3 4 5 6 7 8 9 10 11 12 13 14 15
000
FTUS46 KMTR 200901 AAA
TAFMRY
TAF AMD
KMRY 200901Z 2009/2106 VRB03KT P6SM SCT013
      TEMPO 2010/2013 BKN012
     FM201300 VRB03KT P6SM OVC012
     FM201700 30005KT P6SM BKN020
     FM201900 29007KT P6SM SCT020
     FM202100 28011KT P6SM FEW035
     FM210400 22005KT P6SM OVC015=

USA.gov is the U.S. government's official web portal to all federal, state and local government web resources and services.